createdAt,value
2022-08-11T00:01:27.479Z,22.00
2022-08-11T00:03:58.611Z,23.00
2022-08-11T00:06:32.673Z,22.00
2022-08-11T00:09:03.448Z,23.25
2022-08-11T00:11:40.562Z,23.50
2022-08-11T00:14:36.746Z,21.50
2022-08-11T00:17:09.690Z,23.50
2022-08-11T00:20:11.810Z,22.00
2022-08-11T00:22:31.281Z,23.50
2022-08-11T00:25:02.902Z,22.75
2022-08-11T00:27:36.186Z,24.75
2022-08-11T00:30:07.430Z,24.25
2022-08-11T00:32:37.961Z,24.25
2022-08-11T00:35:55.653Z,23.25
2022-08-11T00:38:01.727Z,24.25
2022-08-11T00:40:44.121Z,26.25
2022-08-11T00:43:31.644Z,23.25
2022-08-11T00:46:07.311Z,24.50
2022-08-11T00:48:55.203Z,23.25
2022-08-11T00:52:02.323Z,26.00
2022-08-11T00:54:33.752Z,26.50
2022-08-11T00:57:37.235Z,23.75
2022-08-11T01:00:16.508Z,25.00
2022-08-11T01:02:49.368Z,23.50
2022-08-11T01:05:22.425Z,25.00
2022-08-11T01:08:09.660Z,25.25
2022-08-11T01:10:57.025Z,26.25
2022-08-11T01:13:44.872Z,24.25
2022-08-11T01:16:26.227Z,24.50
2022-08-11T01:18:56.211Z,24.25
2022-08-11T01:21:25.501Z,24.00
2022-08-11T01:24:06.935Z,24.25
2022-08-11T01:26:45.862Z,23.50
2022-08-11T01:29:31.196Z,23.75
2022-08-11T01:32:00.874Z,25.00
2022-08-11T01:34:30.114Z,22.25
2022-08-11T01:37:02.432Z,24.00
2022-08-11T01:39:50.143Z,22.50
2022-08-11T01:42:52.807Z,25.00
2022-08-11T01:45:24.138Z,23.25
2022-08-11T01:48:29.495Z,26.00
2022-08-11T01:50:59.156Z,24.00
2022-08-11T01:53:28.905Z,23.50
2022-08-11T01:56:00.144Z,26.00
2022-08-11T01:58:39.804Z,21.75
2022-08-11T02:01:22.806Z,22.50
2022-08-11T02:04:10.361Z,25.00
2022-08-11T02:07:01.071Z,25.00
2022-08-11T02:09:49.575Z,25.25
2022-08-11T02:12:59.406Z,22.00
2022-08-11T02:15:29.472Z,21.75
2022-08-11T02:18:02.498Z,25.50
2022-08-11T02:20:56.927Z,22.50
2022-08-11T02:24:06.719Z,25.25
2022-08-11T02:26:48.758Z,21.00
2022-08-11T02:29:21.456Z,23.50
2022-08-11T02:32:28.775Z,22.00
2022-08-11T02:35:10.381Z,23.50
2022-08-11T02:37:46.315Z,24.00
2022-08-11T02:40:25.100Z,21.25
2022-08-11T02:43:05.542Z,22.00
2022-08-11T02:45:48.458Z,21.75
2022-08-11T02:49:00.052Z,22.00
2022-08-11T02:51:48.322Z,21.75
2022-08-11T02:54:24.331Z,20.50
2022-08-11T02:56:57.011Z,20.75
2022-08-11T02:59:54.476Z,22.25
2022-08-11T03:02:48.582Z,22.00
2022-08-11T03:05:29.924Z,22.75
2022-08-11T03:08:00.283Z,21.50
2022-08-11T03:10:47.420Z,21.75
2022-08-11T03:13:37.994Z,21.75
2022-08-11T03:19:27.866Z,22.25
2022-08-11T03:22:15.977Z,21.00
2022-08-11T03:24:48.537Z,19.00
2022-08-11T03:27:38.386Z,22.00
2022-08-11T03:30:12.442Z,20.25
2022-08-11T03:33:28.769Z,21.00
2022-08-11T03:36:16.500Z,19.00
2022-08-11T03:38:57.559Z,21.75
2022-08-11T03:42:03.921Z,22.00
2022-08-11T03:44:39.063Z,22.25
2022-08-11T03:47:09.587Z,21.00
2022-08-11T03:49:59.173Z,20.25
2022-08-11T03:52:41.379Z,20.75
2022-08-11T03:55:23.563Z,20.00
2022-08-11T03:58:11.491Z,20.25
2022-08-11T04:00:53.120Z,21.25
2022-08-11T04:03:42.906Z,19.00
2022-08-11T04:10:08.572Z,18.50
2022-08-11T04:13:16.550Z,20.00
2022-08-11T04:16:11.530Z,19.50
2022-08-11T04:19:12.759Z,22.00
2022-08-11T04:21:48.342Z,19.00
2022-08-11T04:24:37.932Z,20.50
2022-08-11T04:27:39.479Z,18.75
2022-08-11T04:30:27.062Z,19.75
2022-08-11T04:33:06.532Z,19.25
2022-08-11T04:35:55.441Z,19.25
2022-08-11T04:38:25.554Z,19.75
2022-08-11T04:41:19.040Z,20.00
2022-08-11T04:44:02.497Z,19.25
2022-08-11T04:46:51.660Z,17.50
2022-08-11T04:49:57.342Z,19.50
2022-08-11T04:52:48.074Z,18.75
2022-08-11T04:55:37.691Z,18.50
2022-08-11T04:58:44.190Z,18.50
2022-08-11T05:01:43.123Z,16.75
2022-08-11T05:04:49.575Z,18.75
2022-08-11T05:07:28.609Z,19.50
2022-08-11T05:10:05.517Z,19.00
2022-08-11T05:12:48.704Z,20.75
2022-08-11T05:15:59.531Z,19.00
2022-08-11T05:18:49.075Z,19.25
2022-08-11T05:21:44.414Z,19.00
2022-08-11T05:25:02.910Z,17.75
2022-08-11T05:31:12.352Z,20.50
2022-08-11T05:34:23.787Z,18.00
2022-08-11T05:37:29.269Z,19.25
2022-08-11T05:40:20.755Z,18.00
2022-08-11T05:43:13.421Z,20.50
2022-08-11T05:46:03.535Z,17.00
2022-08-11T05:48:55.913Z,18.50
2022-08-11T05:51:55.538Z,18.50
2022-08-11T05:54:46.841Z,17.75
2022-08-11T05:57:39.685Z,18.25
2022-08-11T06:00:16.676Z,19.00
2022-08-11T06:02:57.886Z,19.00
2022-08-11T06:05:43.686Z,19.25
2022-08-11T06:08:19.195Z,19.75
2022-08-11T06:10:49.804Z,18.75
2022-08-11T06:13:19.844Z,19.25
2022-08-11T06:15:51.752Z,20.50
2022-08-11T06:18:22.043Z,20.75
2022-08-11T06:20:53.645Z,22.25
2022-08-11T06:23:27.289Z,21.25
2022-08-11T06:25:57.780Z,20.00
2022-08-11T06:28:38.488Z,22.00
2022-08-11T06:31:37.437Z,21.25
2022-08-11T06:34:10.290Z,23.50
2022-08-11T06:37:09.584Z,23.00
2022-08-11T06:39:54.768Z,22.75
2022-08-11T06:42:36.518Z,21.25
2022-08-11T06:45:11.831Z,21.75
2022-08-11T06:48:00.495Z,24.25
2022-08-11T06:50:53.045Z,23.00
2022-08-11T06:53:26.284Z,24.50
2022-08-11T06:56:32.432Z,27.00
2022-08-11T06:59:41.535Z,23.00
2022-08-11T07:06:09.488Z,27.00
2022-08-11T07:09:28.531Z,26.25
2022-08-11T07:12:37.789Z,26.75
2022-08-11T07:16:13.049Z,26.50
2022-08-11T07:18:46.564Z,26.75
2022-08-11T07:22:18.241Z,25.25
2022-08-11T07:25:43.350Z,26.00
2022-08-11T07:28:40.587Z,25.00
2022-08-11T07:31:15.121Z,26.50
2022-08-11T07:34:06.438Z,25.75
2022-08-11T07:36:41.592Z,25.00
2022-08-11T07:39:16.938Z,23.75
2022-08-11T07:41:48.685Z,24.00
2022-08-11T07:44:19.498Z,23.75
2022-08-11T07:47:09.112Z,22.50
2022-08-11T07:49:58.375Z,26.00
2022-08-11T07:52:31.564Z,24.00
2022-08-11T07:55:49.070Z,24.00
2022-08-11T07:58:44.971Z,22.00
2022-08-11T08:01:39.495Z,21.00
2022-08-11T08:04:28.487Z,20.25
2022-08-11T08:07:17.427Z,21.50
2022-08-11T08:10:05.870Z,21.75
2022-08-11T08:12:54.897Z,20.25
2022-08-11T08:15:42.570Z,19.00
2022-08-11T08:18:26.551Z,18.00
2022-08-11T08:21:14.781Z,21.75
2022-08-11T08:23:53.769Z,19.00
2022-08-11T08:26:54.575Z,19.25
2022-08-11T08:29:52.892Z,19.50
2022-08-11T08:32:32.349Z,18.50
2022-08-11T08:35:12.406Z,19.25
2022-08-11T08:37:47.288Z,17.75
2022-08-11T08:40:17.967Z,17.50
2022-08-11T08:42:53.317Z,17.75
2022-08-11T08:45:24.405Z,16.75
2022-08-11T08:48:01.312Z,18.00
2022-08-11T08:51:02.561Z,17.00
2022-08-11T08:53:52.640Z,17.75
2022-08-11T08:56:46.133Z,16.50
2022-08-11T08:59:16.416Z,16.75
2022-08-11T09:01:50.044Z,16.25
2022-08-11T09:04:21.491Z,16.25
2022-08-11T09:06:52.475Z,16.75
2022-08-11T09:09:23.828Z,17.00
2022-08-11T09:11:56.320Z,16.75
2022-08-11T09:14:52.096Z,17.00
2022-08-11T09:17:22.557Z,17.25
2022-08-11T09:20:01.763Z,18.00
2022-08-11T09:23:19.246Z,16.75
2022-08-11T09:26:01.915Z,15.75
2022-08-11T09:28:32.881Z,16.25
2022-08-11T09:31:03.426Z,16.25
2022-08-11T09:33:33.585Z,17.00
2022-08-11T09:36:25.697Z,15.50
2022-08-11T09:39:13.574Z,17.75
2022-08-11T09:42:00.925Z,15.75
2022-08-11T09:44:50.289Z,16.00
2022-08-11T09:47:25.947Z,16.25
2022-08-11T09:50:01.467Z,15.50
2022-08-11T09:52:32.504Z,16.00
2022-08-11T09:55:03.720Z,16.25
2022-08-11T09:57:51.178Z,16.00
2022-08-11T10:00:22.998Z,17.00
2022-08-11T10:02:55.799Z,16.75
2022-08-11T10:05:43.621Z,17.00
2022-08-11T10:08:22.254Z,16.75
2022-08-11T10:14:33.682Z,15.00
2022-08-11T10:16:54.715Z,18.50
2022-08-11T10:19:24.485Z,18.00
2022-08-11T10:22:12.685Z,17.25
2022-08-11T10:25:02.325Z,15.75
2022-08-11T10:28:16.780Z,15.25
2022-08-11T10:30:42.412Z,15.50
2022-08-11T10:33:37.787Z,15.00
2022-08-11T10:36:16.387Z,17.25
2022-08-11T10:38:48.316Z,16.75
2022-08-11T10:41:36.275Z,17.75
2022-08-11T10:44:08.011Z,14.25
2022-08-11T10:46:56.253Z,18.00
2022-08-11T10:49:27.448Z,16.25
2022-08-11T10:52:16.536Z,15.75
2022-08-11T10:55:04.764Z,16.50
2022-08-11T10:58:04.687Z,17.50
2022-08-11T11:00:36.492Z,15.50
2022-08-11T11:03:23.527Z,18.75
2022-08-11T11:06:29.330Z,16.50
2022-08-11T11:12:49.289Z,14.50
2022-08-11T11:15:46.703Z,14.75
2022-08-11T11:18:22.479Z,14.00
2022-08-11T11:21:08.838Z,16.00
2022-08-11T11:23:49.353Z,13.50
2022-08-11T11:26:40.513Z,16.25
2022-08-11T11:29:36.866Z,16.00
2022-08-11T11:32:31.260Z,15.75
2022-08-11T11:35:23.831Z,15.50
2022-08-11T11:38:08.348Z,14.50
2022-08-11T11:41:10.558Z,14.00
2022-08-11T11:43:46.137Z,14.50
2022-08-11T11:46:19.499Z,16.75
2022-08-11T11:52:21.650Z,15.50
2022-08-11T11:55:04.914Z,13.00
2022-08-11T12:01:07.714Z,16.00
2022-08-11T12:06:57.445Z,14.00
2022-08-11T12:09:39.191Z,14.50
2022-08-11T12:16:31.852Z,16.00
2022-08-11T12:18:27.313Z,16.00
2022-08-11T12:20:56.742Z,15.25
2022-08-11T12:23:44.094Z,16.75
2022-08-11T12:26:33.992Z,15.00
2022-08-11T12:29:03.957Z,14.75
2022-08-11T12:31:34.385Z,14.50
2022-08-11T12:34:07.930Z,15.00
2022-08-11T12:36:39.240Z,14.50
2022-08-11T12:39:23.360Z,16.25
2022-08-11T12:42:18.632Z,14.25
2022-08-11T12:45:22.046Z,15.50
2022-08-11T12:48:57.551Z,15.75
2022-08-11T12:51:23.309Z,16.25
2022-08-11T12:54:04.835Z,15.50
2022-08-11T12:56:58.366Z,15.00
2022-08-11T12:59:46.000Z,14.50
2022-08-11T13:02:38.219Z,15.75
2022-08-11T13:05:14.080Z,15.75
2022-08-11T13:07:50.766Z,15.75
2022-08-11T13:10:42.654Z,17.00
2022-08-11T13:16:36.351Z,14.50
2022-08-11T13:19:40.356Z,14.75
2022-08-11T13:25:15.141Z,15.75
2022-08-11T13:27:57.601Z,14.25
2022-08-11T13:30:59.336Z,15.50
2022-08-11T13:33:59.727Z,15.25
2022-08-11T13:36:32.596Z,15.75
2022-08-11T13:39:12.691Z,15.00
2022-08-11T13:41:49.553Z,15.50
2022-08-11T13:44:25.365Z,15.50
2022-08-11T13:46:58.447Z,14.25
2022-08-11T13:49:29.537Z,14.75
2022-08-11T13:52:02.605Z,14.25
2022-08-11T13:54:37.600Z,14.50
2022-08-11T13:57:13.398Z,14.50
2022-08-11T13:59:52.316Z,16.00
2022-08-11T14:02:30.873Z,14.75
2022-08-11T14:05:03.823Z,14.50
2022-08-11T14:07:43.388Z,14.00
2022-08-11T14:10:14.698Z,14.50
2022-08-11T14:13:07.941Z,15.25
2022-08-11T14:15:38.299Z,15.00
2022-08-11T14:18:10.360Z,14.75
2022-08-11T14:21:00.966Z,15.25
2022-08-11T14:23:47.673Z,15.25
2022-08-11T14:32:56.297Z,15.25
2022-08-11T14:39:24.820Z,14.25
2022-08-11T14:42:13.508Z,15.25
2022-08-11T14:45:06.462Z,13.75
2022-08-11T14:48:11.839Z,16.50
2022-08-11T14:51:05.845Z,16.50
2022-08-11T14:53:58.494Z,15.00
2022-08-11T14:56:43.783Z,14.75
2022-08-11T14:59:15.345Z,13.50
2022-08-11T15:02:07.298Z,14.50
2022-08-11T15:04:37.887Z,12.00
2022-08-11T15:07:16.915Z,15.25
2022-08-11T15:10:11.696Z,14.25
2022-08-11T15:12:39.491Z,14.75
2022-08-11T15:15:28.593Z,13.25
2022-08-11T15:18:04.076Z,14.50
2022-08-11T15:20:53.695Z,15.25
2022-08-11T15:23:42.259Z,13.00
2022-08-11T15:27:02.486Z,14.25
2022-08-11T15:29:53.019Z,15.25
2022-08-11T15:32:25.650Z,14.75
2022-08-11T15:35:18.209Z,16.50
2022-08-11T15:37:54.177Z,13.75
2022-08-11T15:40:56.169Z,13.00
2022-08-11T15:44:17.559Z,12.00
2022-08-11T15:46:49.311Z,15.00
2022-08-11T15:50:11.532Z,14.25
2022-08-11T15:52:43.761Z,15.25
2022-08-11T15:55:21.821Z,15.00
2022-08-11T15:58:11.795Z,15.50
2022-08-11T16:01:03.973Z,15.00
2022-08-11T16:04:07.840Z,15.50
2022-08-11T16:06:51.631Z,13.75
2022-08-11T16:09:41.340Z,15.50
2022-08-11T16:12:19.665Z,14.00
2022-08-11T16:15:10.593Z,14.25
2022-08-11T16:17:46.302Z,15.25
2022-08-11T16:20:17.860Z,14.25
2022-08-11T16:22:57.065Z,13.00
2022-08-11T16:27:03.084Z,15.25
2022-08-11T16:28:26.669Z,15.25
2022-08-11T16:30:57.292Z,17.75
2022-08-11T16:33:49.833Z,15.25
2022-08-11T16:36:37.440Z,16.50
2022-08-11T16:39:09.126Z,17.00
2022-08-11T16:41:58.804Z,15.50
2022-08-11T16:44:48.368Z,14.00
2022-08-11T16:47:48.825Z,16.00
2022-08-11T16:50:10.945Z,15.25
2022-08-11T16:52:40.813Z,15.25
2022-08-11T16:55:11.465Z,15.00
2022-08-11T16:58:00.893Z,14.75
2022-08-11T17:00:31.575Z,15.25
2022-08-11T17:03:21.777Z,17.75
2022-08-11T17:06:13.452Z,14.25
2022-08-11T17:09:07.515Z,17.25
2022-08-11T17:12:00.428Z,17.75
2022-08-11T17:14:42.000Z,16.50
2022-08-11T17:17:16.718Z,15.50
2022-08-11T17:20:39.529Z,14.75
2022-08-11T17:22:57.224Z,16.75
2022-08-11T17:25:29.632Z,18.25
2022-08-11T17:28:01.372Z,15.75
2022-08-11T17:30:52.080Z,17.00
2022-08-11T17:33:41.720Z,15.75
2022-08-11T17:36:12.372Z,15.75
2022-08-11T17:38:43.452Z,15.75
2022-08-11T17:41:32.634Z,15.50
2022-08-11T17:44:20.177Z,17.00
2022-08-11T17:47:08.852Z,16.00
2022-08-11T17:49:40.580Z,16.50
2022-08-11T17:52:34.684Z,15.50
2022-08-11T17:55:51.091Z,15.00
2022-08-11T17:58:33.036Z,15.25
2022-08-11T18:01:08.797Z,16.25
2022-08-11T18:03:57.801Z,17.50
2022-08-11T18:06:32.631Z,16.00
2022-08-11T18:09:31.906Z,18.25
2022-08-11T18:12:20.034Z,16.50
2022-08-11T18:15:09.502Z,15.75
2022-08-11T18:17:58.058Z,16.25
2022-08-11T18:20:46.037Z,17.75
2022-08-11T18:23:41.680Z,17.75
2022-08-11T18:26:37.814Z,19.00
2022-08-11T18:29:27.030Z,17.25
2022-08-11T18:32:22.178Z,18.00
2022-08-11T18:35:12.114Z,16.75
2022-08-11T18:38:05.216Z,18.00
2022-08-11T18:40:54.733Z,16.50
2022-08-11T18:43:42.672Z,16.25
2022-08-11T18:46:32.502Z,16.75
2022-08-11T18:50:01.920Z,16.75
2022-08-11T18:52:53.733Z,18.00
2022-08-11T18:55:42.308Z,19.25
2022-08-11T18:58:31.616Z,15.75
2022-08-11T19:01:21.058Z,19.25
2022-08-11T19:04:11.188Z,17.25
2022-08-11T19:07:06.092Z,17.25
2022-08-11T19:09:56.244Z,16.25
2022-08-11T19:12:44.465Z,17.50
2022-08-11T19:15:32.641Z,18.00
2022-08-11T19:18:22.435Z,17.25
2022-08-11T19:21:11.133Z,17.00
2022-08-11T19:24:03.089Z,17.00
2022-08-11T19:26:53.122Z,17.00
2022-08-11T19:30:07.758Z,19.00
2022-08-11T19:32:51.221Z,18.00
2022-08-11T19:35:39.292Z,18.00
2022-08-11T19:38:27.623Z,15.50
2022-08-11T19:41:17.145Z,16.00
2022-08-11T19:44:11.478Z,19.25
2022-08-11T19:47:07.127Z,19.25
2022-08-11T19:49:55.569Z,17.25
2022-08-11T19:52:44.363Z,18.25
2022-08-11T19:55:32.554Z,17.25
2022-08-11T19:58:21.861Z,19.00
2022-08-11T20:01:12.616Z,20.00
2022-08-11T20:04:00.597Z,20.75
2022-08-11T20:06:48.091Z,19.50
2022-08-11T20:10:04.589Z,19.00
2022-08-11T20:12:44.768Z,19.00
2022-08-11T20:15:33.452Z,18.50
2022-08-11T20:18:21.218Z,20.00
2022-08-11T20:21:25.301Z,21.50
2022-08-11T20:24:20.492Z,21.00
2022-08-11T20:27:18.835Z,20.50
2022-08-11T20:30:13.143Z,18.50
2022-08-11T20:33:02.233Z,21.25
2022-08-11T20:35:51.076Z,21.75
2022-08-11T20:38:41.685Z,20.25
2022-08-11T20:41:30.268Z,22.25
2022-08-11T20:44:18.850Z,20.75
2022-08-11T20:47:13.267Z,21.25
2022-08-11T20:50:00.677Z,22.75
2022-08-11T20:52:51.948Z,22.50
2022-08-11T20:55:51.780Z,23.25
2022-08-11T20:59:11.513Z,21.50
2022-08-11T21:01:52.331Z,21.25
2022-08-11T21:04:54.843Z,23.00
2022-08-11T21:07:55.619Z,23.00
2022-08-11T21:10:51.569Z,21.75
2022-08-11T21:13:40.919Z,22.00
2022-08-11T21:16:32.266Z,22.50
2022-08-11T21:19:59.773Z,21.25
2022-08-11T21:22:58.982Z,23.25
2022-08-11T21:25:54.296Z,22.25
2022-08-11T21:28:42.111Z,23.00
2022-08-11T21:31:30.318Z,24.50
2022-08-11T21:34:19.196Z,23.25
2022-08-11T21:37:07.703Z,22.50
2022-08-11T21:39:56.386Z,24.25
2022-08-11T21:42:44.991Z,26.00
2022-08-11T21:45:33.189Z,23.25
2022-08-11T21:48:21.138Z,25.00
2022-08-11T21:51:08.631Z,24.50
2022-08-11T21:53:56.908Z,23.00
2022-08-11T21:56:46.556Z,23.00
2022-08-11T21:59:37.030Z,25.00
2022-08-11T22:02:24.837Z,23.50
2022-08-11T22:05:13.207Z,25.00
2022-08-11T22:08:00.825Z,23.25
2022-08-11T22:10:48.814Z,26.75
2022-08-11T22:13:36.092Z,25.00
2022-08-11T22:16:24.291Z,23.75
2022-08-11T22:19:15.391Z,26.00
2022-08-11T22:22:06.190Z,25.50
2022-08-11T22:24:56.400Z,24.50
2022-08-11T22:27:45.700Z,25.25
2022-08-11T22:30:32.931Z,25.00
2022-08-11T22:33:25.684Z,24.75
2022-08-11T22:36:17.464Z,25.25
2022-08-11T22:39:05.606Z,24.00
2022-08-11T22:41:52.911Z,25.50
2022-08-11T22:44:40.409Z,25.50
2022-08-11T22:47:38.273Z,27.00
2022-08-11T22:50:30.084Z,25.00
2022-08-11T22:53:18.852Z,26.00
2022-08-11T22:56:07.165Z,26.00
2022-08-11T22:58:55.310Z,27.00
2022-08-11T23:01:54.753Z,28.00
2022-08-11T23:04:44.775Z,26.00
2022-08-11T23:07:50.236Z,27.00
2022-08-11T23:10:40.572Z,29.25
2022-08-11T23:13:28.907Z,26.00
2022-08-11T23:16:17.056Z,26.50
2022-08-11T23:19:05.157Z,26.25
2022-08-11T23:21:53.870Z,25.75
2022-08-11T23:24:42.521Z,27.00
2022-08-11T23:27:30.535Z,27.00
2022-08-11T23:30:20.623Z,27.25
2022-08-11T23:33:11.392Z,26.00
2022-08-11T23:36:04.422Z,26.50
2022-08-11T23:38:53.132Z,27.25
2022-08-11T23:41:41.833Z,27.00
2022-08-11T23:44:29.473Z,27.00
2022-08-11T23:47:19.393Z,27.50
2022-08-11T23:50:07.648Z,27.25
2022-08-11T23:52:55.682Z,27.50
2022-08-11T23:55:43.363Z,27.75
2022-08-11T23:58:32.311Z,27.75
